Time,TemperatureF,DewpointF,PressureIn,WindDirection,WindDirectionDegrees,WindSpeedMPH,WindSpeedGustMPH,Humidity,HourlyPrecipIn,Conditions,Clouds,dailyrainin,SoftwareType,DateUTC
2014-09-22 00:13:00,58.0,51.0,30.01,WNW,294,1.0,7.0,78,0.00,,,0.00,,2014-09-22 04:13:00,
2014-09-22 00:24:00,57.0,51.0,30.01,West,276,2.0,9.0,79,0.00,,,0.00,,2014-09-22 04:24:00,
2014-09-22 00:43:00,57.0,51.0,30.01,WNW,302,1.0,6.0,80,0.00,,,0.00,,2014-09-22 04:43:00,
2014-09-22 00:53:00,56.0,50.0,30.01,NNE,25,1.0,5.0,81,0.00,,,0.00,,2014-09-22 04:53:00,
2014-09-22 01:23:00,55.0,50.0,30.02,West,271,0.0,4.0,83,0.00,,,0.00,,2014-09-22 05:23:00,
2014-09-22 01:43:00,55.0,50.0,30.02,WNW,287,1.0,7.0,83,0.00,,,0.00,,2014-09-22 05:43:00,
2014-09-22 01:53:00,55.0,50.0,30.02,WNW,288,0.0,6.0,84,0.00,,,0.00,,2014-09-22 05:53:00,
2014-09-22 02:12:00,54.0,50.0,30.03,North,353,0.0,3.0,85,0.00,,,0.00,,2014-09-22 06:12:00,
2014-09-22 02:23:00,54.0,50.0,30.02,NW,322,0.0,6.0,85,0.00,,,0.00,,2014-09-22 06:23:00,
2014-09-22 02:43:00,53.0,49.0,30.03,WNW,283,0.0,3.0,87,0.00,,,0.00,,2014-09-22 06:43:00,
2014-09-22 02:52:00,53.0,49.0,30.03,WNW,287,0.0,2.0,87,0.00,,,0.00,,2014-09-22 06:52:00,
2014-09-22 03:12:00,52.0,49.0,30.03,West,276,0.0,1.0,89,0.00,,,0.00,,2014-09-22 07:12:00,
2014-09-22 03:22:00,52.0,49.0,30.03,North,6,1.0,4.0,89,0.00,,,0.00,,2014-09-22 07:22:00,
2014-09-22 03:43:00,52.0,49.0,30.03,WSW,250,0.0,4.0,89,0.00,,,0.00,,2014-09-22 07:43:00,
2014-09-22 03:52:00,52.0,49.0,30.04,North,351,0.0,5.0,89,0.00,,,0.00,,2014-09-22 07:52:00,
2014-09-22 04:22:00,51.0,48.0,30.04,ENE,75,0.0,3.0,90,0.00,,,0.00,,2014-09-22 08:22:00,
2014-09-22 04:42:00,51.0,48.0,30.04,NNW,347,0.0,4.0,90,0.00,,,0.00,,2014-09-22 08:42:00,
2014-09-22 04:52:00,51.0,47.0,30.05,West,269,1.0,6.0,86,0.00,,,0.00,,2014-09-22 08:52:00,
2014-09-22 05:12:00,51.0,47.0,30.05,NNW,329,0.0,8.0,85,0.00,,,0.00,,2014-09-22 09:12:00,
2014-09-22 05:23:00,50.0,45.0,30.06,NNW,345,0.0,5.0,84,0.00,,,0.00,,2014-09-22 09:23:00,
2014-09-22 05:44:00,50.0,45.0,30.07,NNE,13,0.0,7.0,82,0.00,,,0.00,,2014-09-22 09:44:00,
2014-09-22 05:54:00,50.0,44.0,30.08,NNE,30,0.0,5.0,81,0.00,,,0.00,,2014-09-22 09:54:00,
2014-09-22 06:13:00,49.0,43.0,30.08,West,269,1.0,4.0,81,0.00,,,0.00,,2014-09-22 10:13:00,
2014-09-22 06:24:00,51.0,46.0,30.09,NNW,333,0.0,4.0,82,0.00,,,0.00,,2014-09-22 10:24:00,
2014-09-22 08:42:00,47.0,44.0,30.14,NNW,333,1.0,5.0,89,0.00,,,0.00,,2014-09-22 12:42:00,
2014-09-22 08:52:00,47.0,44.0,30.15,North,354,0.0,4.0,88,0.00,,,0.00,,2014-09-22 12:52:00,
2014-09-22 09:22:00,49.0,45.0,30.16,West,281,0.0,3.0,87,0.00,,,0.00,,2014-09-22 13:22:00,
2014-09-22 09:43:00,50.0,46.0,30.17,WNW,288,0.0,3.0,85,0.00,,,0.00,,2014-09-22 13:43:00,
2014-09-22 09:52:00,51.0,46.0,30.17,WNW,303,1.0,3.0,82,0.00,,,0.00,,2014-09-22 13:52:00,
2014-09-22 10:23:00,53.0,46.0,30.19,NNE,33,1.0,4.0,78,0.00,,,0.00,,2014-09-22 14:23:00,
2014-09-22 10:43:00,53.0,46.0,30.19,NNW,330,1.0,5.0,77,0.00,,,0.00,,2014-09-22 14:43:00,
2014-09-22 10:52:00,53.0,46.0,30.19,NW,315,0.0,4.0,77,0.00,,,0.00,,2014-09-22 14:52:00,
2014-09-22 11:23:00,56.0,47.0,30.20,NNE,13,0.0,4.0,72,0.00,,,0.00,,2014-09-22 15:23:00,
2014-09-22 11:45:00,57.0,47.0,30.20,WNW,288,2.0,5.0,69,0.00,,,0.00,,2014-09-22 15:45:00,
2014-09-22 11:54:00,56.0,47.0,30.21,WNW,293,0.0,2.0,71,0.00,,,0.00,,2014-09-22 15:54:00,
2014-09-22 12:24:00,58.0,48.0,30.20,WSW,255,1.0,4.0,69,0.00,,,0.00,,2014-09-22 16:24:00,
2014-09-22 12:53:00,61.0,49.0,30.21,NE,44,2.0,7.0,64,0.00,,,0.00,,2014-09-22 16:53:00,
2014-09-22 13:21:00,60.0,-99.9,30.21,West,271,1.0,6.0,66,0.00,,,0.00,,2014-09-22 17:21:00,
2014-09-22 13:43:00,60.0,47.0,30.21,NNE,26,2.0,7.0,63,0.00,,,0.00,,2014-09-22 17:43:00,
2014-09-22 13:53:00,61.0,48.0,30.20,WNW,300,2.0,7.0,62,0.00,,,0.00,,2014-09-22 17:53:00,
2014-09-22 14:12:00,62.0,48.0,30.20,NW,320,1.0,5.0,60,0.00,,,0.00,,2014-09-22 18:12:00,
2014-09-22 14:22:00,63.0,48.0,30.20,NNE,24,4.0,8.0,59,0.00,,,0.00,,2014-09-22 18:22:00,